createdAt,value
2018-09-17T00:01:57.967Z,99.90
2018-09-17T00:04:26.904Z,99.90
2018-09-17T00:06:55.882Z,99.90
2018-09-17T00:09:24.518Z,99.90
2018-09-17T00:11:53.039Z,99.90
2018-09-17T00:14:21.641Z,99.90
2018-09-17T00:16:50.320Z,99.90
2018-09-17T00:19:19.566Z,99.90
2018-09-17T00:21:48.147Z,99.90
2018-09-17T00:24:17.516Z,99.90
2018-09-17T00:26:46.054Z,99.90
2018-09-17T00:29:14.582Z,99.90
2018-09-17T00:31:43.116Z,99.90
2018-09-17T00:34:11.869Z,99.90
2018-09-17T00:36:40.661Z,99.90
2018-09-17T00:39:10.697Z,99.90
2018-09-17T00:41:40.473Z,99.90
2018-09-17T00:44:09.026Z,99.90
2018-09-17T00:46:37.878Z,99.90
2018-09-17T00:49:06.654Z,99.90
2018-09-17T00:51:36.016Z,99.90
2018-09-17T00:54:04.588Z,99.90
2018-09-17T00:56:33.226Z,99.90
2018-09-17T00:59:01.768Z,99.90
2018-09-17T01:01:31.356Z,99.90
2018-09-17T01:04:00.263Z,99.90
2018-09-17T01:06:28.861Z,99.90
2018-09-17T01:08:57.886Z,99.90
2018-09-17T01:11:26.520Z,99.90
2018-09-17T01:13:55.431Z,99.90
2018-09-17T01:16:23.992Z,99.90
2018-09-17T01:18:52.575Z,99.90
2018-09-17T01:21:21.172Z,99.90
2018-09-17T01:23:49.939Z,99.90
2018-09-17T01:26:18.560Z,99.90
2018-09-17T01:28:47.197Z,99.90
2018-09-17T01:31:22.544Z,99.90
2018-09-17T01:33:51.637Z,99.90
2018-09-17T01:36:20.337Z,99.90
2018-09-17T01:38:48.900Z,99.90
2018-09-17T01:41:17.817Z,99.90
2018-09-17T01:43:46.418Z,99.90
2018-09-17T01:46:15.174Z,99.90
2018-09-17T01:48:44.028Z,99.90
2018-09-17T01:51:12.743Z,99.90
2018-09-17T01:53:41.367Z,99.90
2018-09-17T01:56:10.206Z,99.90
2018-09-17T01:58:38.839Z,99.90
2018-09-17T02:01:07.832Z,99.90
2018-09-17T02:03:36.503Z,99.90
2018-09-17T02:06:05.412Z,99.90
2018-09-17T02:08:34.409Z,99.90
2018-09-17T02:11:03.289Z,99.90
2018-09-17T02:13:32.224Z,99.90
2018-09-17T02:16:00.852Z,99.90
2018-09-17T02:18:29.481Z,99.90
2018-09-17T02:20:58.721Z,99.90
2018-09-17T02:23:28.030Z,99.90
2018-09-17T02:25:56.586Z,99.90
2018-09-17T02:28:25.361Z,99.90
2018-09-17T02:30:54.169Z,99.90
2018-09-17T02:33:24.448Z,99.90
2018-09-17T02:35:53.597Z,99.90
2018-09-17T02:38:22.399Z,99.90
2018-09-17T02:40:51.016Z,99.90
2018-09-17T02:43:19.631Z,99.90
2018-09-17T02:45:48.201Z,99.90
2018-09-17T02:48:16.771Z,99.90
2018-09-17T02:50:45.329Z,99.90
2018-09-17T02:53:13.872Z,99.90
2018-09-17T02:55:42.783Z,99.90
2018-09-17T02:58:11.362Z,99.90
2018-09-17T03:00:40.210Z,99.90
2018-09-17T03:03:08.872Z,99.90
2018-09-17T03:05:37.541Z,99.90
2018-09-17T03:08:06.177Z,99.90
2018-09-17T03:10:35.561Z,99.90
2018-09-17T03:13:04.153Z,99.90
2018-09-17T03:16:04.908Z,99.90
2018-09-17T03:18:44.523Z,99.90
2018-09-17T03:21:13.268Z,99.90
2018-09-17T03:23:41.929Z,99.90
2018-09-17T03:26:10.558Z,99.90
2018-09-17T03:28:39.156Z,99.90
2018-09-17T03:31:07.787Z,99.90
2018-09-17T03:33:36.352Z,99.90
2018-09-17T03:36:05.149Z,99.90
2018-09-17T03:38:38.069Z,99.90
2018-09-17T03:41:07.844Z,99.90
2018-09-17T03:43:37.676Z,99.90
2018-09-17T03:46:06.240Z,99.90
2018-09-17T03:48:36.157Z,99.90
2018-09-17T03:51:05.469Z,99.90
2018-09-17T03:53:34.633Z,99.90
2018-09-17T03:56:03.604Z,99.90
2018-09-17T03:58:32.691Z,99.90
2018-09-17T04:01:02.124Z,99.90
2018-09-17T04:03:30.646Z,99.90
2018-09-17T04:05:59.441Z,99.90
2018-09-17T04:08:29.481Z,99.90
2018-09-17T04:10:58.117Z,99.90
2018-09-17T04:13:26.635Z,99.90
2018-09-17T04:15:55.256Z,99.90
2018-09-17T04:18:23.841Z,99.90
2018-09-17T04:20:52.490Z,99.90
2018-09-17T04:23:25.264Z,99.90
2018-09-17T04:25:53.796Z,99.90
2018-09-17T04:28:22.327Z,99.90
2018-09-17T04:30:51.478Z,99.90
2018-09-17T04:33:20.199Z,99.90
2018-09-17T04:35:48.802Z,99.90
2018-09-17T04:38:17.563Z,99.90
2018-09-17T04:40:46.110Z,99.90
2018-09-17T04:43:15.384Z,99.90
2018-09-17T04:45:44.028Z,99.90
2018-09-17T04:48:12.600Z,99.90
2018-09-17T04:50:41.113Z,99.90
2018-09-17T04:53:09.730Z,99.90
2018-09-17T04:55:38.340Z,99.90
2018-09-17T04:58:06.958Z,99.90
2018-09-17T05:00:35.768Z,99.90
2018-09-17T05:03:04.298Z,99.90
2018-09-17T05:05:32.924Z,99.90
2018-09-17T05:08:01.440Z,99.90
2018-09-17T05:10:29.972Z,99.90
2018-09-17T05:12:58.682Z,99.90
2018-09-17T05:15:27.168Z,99.90
2018-09-17T05:17:55.716Z,99.90
2018-09-17T05:20:24.323Z,99.90
2018-09-17T05:22:52.861Z,99.90
2018-09-17T05:25:21.403Z,99.90
2018-09-17T05:27:49.966Z,99.90
2018-09-17T05:30:18.520Z,99.90
2018-09-17T05:32:47.121Z,99.90
2018-09-17T05:35:15.679Z,99.90
2018-09-17T05:37:44.300Z,99.90
2018-09-17T05:40:12.870Z,99.90
2018-09-17T05:42:41.495Z,99.90
2018-09-17T05:45:10.060Z,99.90
2018-09-17T05:47:38.608Z,99.90
2018-09-17T05:50:07.344Z,99.90
2018-09-17T05:52:36.116Z,99.90
2018-09-17T05:55:04.717Z,99.90
2018-09-17T05:57:33.314Z,99.90
2018-09-17T06:00:02.604Z,99.90
2018-09-17T06:02:31.716Z,99.90
2018-09-17T06:05:00.485Z,99.90
2018-09-17T06:07:29.121Z,99.90
2018-09-17T06:09:57.676Z,99.90
2018-09-17T06:12:26.144Z,99.90
2018-09-17T06:14:54.809Z,99.90
2018-09-17T06:17:23.456Z,99.90
2018-09-17T06:19:52.031Z,99.90
2018-09-17T06:22:20.552Z,99.90
2018-09-17T06:24:49.180Z,99.90
2018-09-17T06:27:18.091Z,99.90
2018-09-17T06:29:46.964Z,99.90
2018-09-17T06:32:17.049Z,99.90
2018-09-17T06:34:45.778Z,99.90
2018-09-17T06:37:14.567Z,99.90
2018-09-17T06:39:43.365Z,99.90
2018-09-17T06:42:11.891Z,99.90
2018-09-17T06:44:42.493Z,99.90
2018-09-17T06:47:12.047Z,99.90
2018-09-17T06:49:41.078Z,99.90
2018-09-17T06:52:09.645Z,99.90
2018-09-17T06:54:38.241Z,99.90
2018-09-17T06:57:06.865Z,99.90
2018-09-17T06:59:35.605Z,99.90
2018-09-17T07:02:05.208Z,99.90
2018-09-17T07:04:34.207Z,99.90
2018-09-17T07:07:03.688Z,99.90
2018-09-17T07:09:32.473Z,99.90
2018-09-17T07:12:01.233Z,99.90
2018-09-17T07:14:30.335Z,99.90
2018-09-17T07:16:59.037Z,99.90
2018-09-17T07:19:28.065Z,99.90
2018-09-17T07:21:56.764Z,99.90
2018-09-17T07:24:25.420Z,99.90
2018-09-17T07:26:54.466Z,99.90
2018-09-17T07:29:23.678Z,99.90
2018-09-17T07:31:52.347Z,99.90
2018-09-17T07:34:21.194Z,99.90
2018-09-17T07:36:49.834Z,99.90
2018-09-17T07:39:18.398Z,99.90
2018-09-17T07:41:47.434Z,99.90
2018-09-17T07:44:16.153Z,99.90
2018-09-17T07:46:45.279Z,99.90
2018-09-17T07:49:14.182Z,99.90
2018-09-17T07:51:42.890Z,99.90
2018-09-17T07:54:11.727Z,99.90
2018-09-17T07:56:40.594Z,99.90
2018-09-17T07:59:09.745Z,99.90
2018-09-17T08:01:38.958Z,99.90
2018-09-17T08:04:07.847Z,99.90
2018-09-17T08:06:37.384Z,99.90
2018-09-17T08:09:09.880Z,99.90
2018-09-17T08:11:38.580Z,99.90
2018-09-17T08:14:07.245Z,99.90
2018-09-17T08:16:36.414Z,99.90
2018-09-17T08:19:05.715Z,99.90
2018-09-17T08:21:34.323Z,99.90
2018-09-17T08:24:03.050Z,99.90
2018-09-17T08:26:36.223Z,99.90
2018-09-17T08:29:05.312Z,99.90
2018-09-17T08:31:33.874Z,99.90
2018-09-17T08:34:02.573Z,99.90
2018-09-17T08:36:31.129Z,99.90
2018-09-17T08:38:59.967Z,99.90
2018-09-17T08:41:28.556Z,99.90
2018-09-17T08:43:57.544Z,99.90
2018-09-17T08:46:26.714Z,99.90
2018-09-17T08:48:55.525Z,99.90
2018-09-17T08:51:24.221Z,99.90
2018-09-17T08:53:53.966Z,99.90
2018-09-17T08:56:26.933Z,99.90
2018-09-17T08:58:59.070Z,99.90
2018-09-17T09:01:34.143Z,99.90
2018-09-17T09:04:08.189Z,99.90
2018-09-17T09:06:42.040Z,99.90
2018-09-17T09:09:12.082Z,99.90
2018-09-17T09:11:46.667Z,99.90
2018-09-17T09:14:20.660Z,99.90
2018-09-17T09:16:49.269Z,99.90
2018-09-17T09:19:18.162Z,99.90
2018-09-17T09:21:46.815Z,99.90
2018-09-17T09:24:16.166Z,99.90
2018-09-17T09:26:44.745Z,99.90
2018-09-17T09:29:13.326Z,99.90
2018-09-17T09:31:41.922Z,99.90
2018-09-17T09:34:10.453Z,99.90
2018-09-17T09:36:39.203Z,99.90
2018-09-17T09:39:09.644Z,99.90
2018-09-17T09:41:39.106Z,99.90
2018-09-17T09:44:08.092Z,99.90
2018-09-17T09:46:36.678Z,99.90
2018-09-17T09:49:05.551Z,99.90
2018-09-17T09:51:36.123Z,99.90
2018-09-17T09:54:04.756Z,99.90
2018-09-17T09:56:33.700Z,99.90
2018-09-17T09:59:02.482Z,99.90
2018-09-17T10:01:33.028Z,99.90
2018-09-17T10:04:08.109Z,99.90
2018-09-17T10:06:36.822Z,98.50
2018-09-17T10:09:12.485Z,97.40
2018-09-17T10:11:47.168Z,98.30
2018-09-17T10:14:20.944Z,98.50
2018-09-17T10:16:54.847Z,97.00
2018-09-17T10:19:24.728Z,95.80
2018-09-17T10:21:53.904Z,96.90
2018-09-17T10:24:22.641Z,97.60
2018-09-17T10:26:51.350Z,96.30
2018-09-17T10:29:20.106Z,98.80
2018-09-17T10:31:49.647Z,99.30
2018-09-17T10:34:18.194Z,97.50
2018-09-17T10:36:47.044Z,96.90
2018-09-17T10:39:16.543Z,95.90
2018-09-17T10:41:45.737Z,89.50
2018-09-17T10:44:14.358Z,90.00
2018-09-17T10:46:43.051Z,87.30
2018-09-17T10:49:11.940Z,82.50
2018-09-17T10:51:40.449Z,80.50
2018-09-17T10:54:09.897Z,87.00
2018-09-17T10:56:38.583Z,85.70
2018-09-17T10:59:07.260Z,82.20
2018-09-17T11:01:36.537Z,84.30
2018-09-17T11:04:05.387Z,81.50
2018-09-17T11:06:33.936Z,80.60
2018-09-17T11:09:02.812Z,76.70
2018-09-17T11:11:31.637Z,76.00
2018-09-17T11:14:00.200Z,79.90
2018-09-17T11:16:28.736Z,79.80
2018-09-17T11:18:57.401Z,74.80
2018-09-17T11:21:26.295Z,77.50
2018-09-17T11:23:54.909Z,81.60
2018-09-17T11:26:23.473Z,82.20
2018-09-17T11:28:52.184Z,80.50
2018-09-17T11:31:21.263Z,81.50
2018-09-17T11:33:50.024Z,81.50
2018-09-17T11:36:18.549Z,80.70
2018-09-17T11:38:47.090Z,78.40
2018-09-17T11:41:16.256Z,74.30
2018-09-17T11:43:45.050Z,75.50
2018-09-17T11:46:13.698Z,77.00
2018-09-17T11:48:43.112Z,76.10
2018-09-17T11:51:11.748Z,73.00
2018-09-17T11:53:40.299Z,74.70
2018-09-17T11:56:09.707Z,71.60
2018-09-17T11:58:38.725Z,73.80
2018-09-17T12:01:12.629Z,73.60
2018-09-17T12:03:46.640Z,75.30
2018-09-17T12:07:18.432Z,73.90
2018-09-17T12:09:47.179Z,70.70
2018-09-17T12:12:16.019Z,69.00
2018-09-17T12:14:44.650Z,67.90
2018-09-17T12:17:13.466Z,68.00
2018-09-17T12:19:42.787Z,70.20
2018-09-17T12:22:11.703Z,68.40
2018-09-17T12:24:40.405Z,65.50
2018-09-17T12:27:09.217Z,65.30
2018-09-17T12:29:38.276Z,64.40
2018-09-17T12:32:06.956Z,62.70
2018-09-17T12:34:35.827Z,61.20
2018-09-17T12:37:04.380Z,66.10
2018-09-17T12:39:33.485Z,61.10
2018-09-17T12:42:02.164Z,59.90
2018-09-17T12:44:31.106Z,59.80
2018-09-17T12:46:59.718Z,57.50
2018-09-17T12:49:28.409Z,57.00
2018-09-17T12:51:57.388Z,57.00
2018-09-17T12:54:26.747Z,57.00
2018-09-17T12:56:55.388Z,58.70
2018-09-17T12:59:24.481Z,61.20
2018-09-17T13:01:53.410Z,60.00
2018-09-17T13:04:21.942Z,58.70
2018-09-17T13:06:50.638Z,57.90
2018-09-17T13:09:19.205Z,57.40
2018-09-17T13:11:47.788Z,58.00
2018-09-17T13:14:17.453Z,57.80
2018-09-17T13:16:46.147Z,57.00
2018-09-17T13:19:14.718Z,59.80
2018-09-17T13:21:43.228Z,59.70
2018-09-17T13:24:12.092Z,60.30
2018-09-17T13:26:40.785Z,60.90
2018-09-17T13:29:09.331Z,58.00
2018-09-17T13:31:38.592Z,58.50
2018-09-17T13:34:07.176Z,58.70
2018-09-17T13:36:35.994Z,55.30
2018-09-17T13:39:06.533Z,54.50
2018-09-17T13:41:35.419Z,56.90
2018-09-17T13:44:04.034Z,57.30
2018-09-17T13:46:32.528Z,59.90
2018-09-17T13:49:01.358Z,58.70
2018-09-17T13:51:29.988Z,58.80
2018-09-17T13:53:58.640Z,58.70
2018-09-17T13:56:27.181Z,54.90
2018-09-17T13:58:55.797Z,53.90
2018-09-17T14:01:24.348Z,53.30
2018-09-17T14:03:53.170Z,54.50
2018-09-17T14:06:21.748Z,56.70
2018-09-17T14:08:50.710Z,57.10
2018-09-17T14:11:19.293Z,54.60
2018-09-17T14:13:48.494Z,54.00
2018-09-17T14:16:21.358Z,55.10
2018-09-17T14:18:49.928Z,56.10
2018-09-17T14:21:18.608Z,55.90
2018-09-17T14:23:47.912Z,55.70
2018-09-17T14:26:17.692Z,53.70
2018-09-17T14:28:46.415Z,55.60
2018-09-17T14:31:14.924Z,54.80
2018-09-17T14:33:44.335Z,55.70
2018-09-17T14:36:13.511Z,56.60
2018-09-17T14:38:42.237Z,57.30
2018-09-17T14:41:10.800Z,55.00
2018-09-17T14:43:40.168Z,54.20
2018-09-17T14:46:08.712Z,53.50
2018-09-17T14:48:37.304Z,53.90
2018-09-17T14:51:05.824Z,55.90
2018-09-17T14:53:35.200Z,54.80
2018-09-17T14:56:03.916Z,58.90
2018-09-17T14:58:32.603Z,59.40
2018-09-17T15:01:01.166Z,60.50
2018-09-17T15:03:30.034Z,58.50
2018-09-17T15:05:58.677Z,58.50
2018-09-17T15:08:27.407Z,58.30
2018-09-17T15:10:56.047Z,57.20
2018-09-17T15:13:24.707Z,58.30
2018-09-17T15:15:57.114Z,59.90
2018-09-17T15:18:25.599Z,56.80
2018-09-17T15:20:54.505Z,57.10
2018-09-17T15:23:23.135Z,56.80
2018-09-17T15:25:52.085Z,56.60
2018-09-17T15:28:21.006Z,57.90
2018-09-17T15:30:49.592Z,58.40
2018-09-17T15:33:18.234Z,57.60
2018-09-17T15:35:46.877Z,55.20
2018-09-17T15:38:15.579Z,53.60
2018-09-17T15:40:44.420Z,50.50
2018-09-17T15:43:13.098Z,48.90
2018-09-17T15:45:41.876Z,46.30
2018-09-17T15:48:11.316Z,44.60
2018-09-17T15:50:40.296Z,42.50
2018-09-17T15:53:09.006Z,41.60
2018-09-17T15:55:37.809Z,40.50
2018-09-17T15:58:06.746Z,38.40
2018-09-17T16:00:35.305Z,36.50
2018-09-17T16:03:04.144Z,36.70
2018-09-17T16:05:32.862Z,37.80
2018-09-17T16:08:01.969Z,36.50
2018-09-17T16:10:30.802Z,36.60
2018-09-17T16:12:59.469Z,36.50
2018-09-17T16:15:28.291Z,37.70
2018-09-17T16:17:57.307Z,36.30
2018-09-17T16:20:26.460Z,36.50
2018-09-17T16:22:55.449Z,34.60
2018-09-17T16:25:24.060Z,34.90
2018-09-17T16:27:52.718Z,33.90
2018-09-17T16:30:21.409Z,33.50
2018-09-17T16:32:50.004Z,32.40
2018-09-17T16:35:18.616Z,32.80
2018-09-17T16:37:47.826Z,34.10
2018-09-17T16:40:16.371Z,37.40
2018-09-17T16:42:45.085Z,41.00
2018-09-17T16:45:13.939Z,43.50
2018-09-17T16:47:42.908Z,47.70
2018-09-17T16:50:11.565Z,49.90
2018-09-17T16:52:40.215Z,53.50
2018-09-17T16:55:08.833Z,57.30
2018-09-17T16:57:37.403Z,61.80
2018-09-17T17:00:06.012Z,63.90
2018-09-17T17:02:34.696Z,70.60
2018-09-17T17:05:03.416Z,75.10
2018-09-17T17:07:32.001Z,80.30
2018-09-17T17:10:00.782Z,84.60
2018-09-17T17:12:30.292Z,90.10
2018-09-17T17:14:58.873Z,93.30
2018-09-17T17:17:27.745Z,96.50
2018-09-17T17:19:56.384Z,99.70
2018-09-17T17:22:24.977Z,99.90
2018-09-17T17:24:54.535Z,99.90
2018-09-17T17:27:23.136Z,99.90
2018-09-17T17:29:51.785Z,99.90
2018-09-17T17:32:20.532Z,99.90
2018-09-17T17:34:49.157Z,99.90
2018-09-17T17:37:17.851Z,99.90
2018-09-17T17:39:46.576Z,99.90
2018-09-17T17:42:15.119Z,99.90
2018-09-17T17:44:43.945Z,99.90
2018-09-17T17:47:12.690Z,99.90
2018-09-17T17:49:41.379Z,99.90
2018-09-17T17:52:09.991Z,99.90
2018-09-17T17:54:39.375Z,99.90
2018-09-17T17:57:08.494Z,99.90
2018-09-17T17:59:37.446Z,99.90
2018-09-17T18:02:06.329Z,99.90
2018-09-17T18:04:35.077Z,99.90
2018-09-17T18:07:03.831Z,99.90
2018-09-17T18:09:33.643Z,99.90
2018-09-17T18:12:02.388Z,99.90
2018-09-17T18:14:31.034Z,99.90
2018-09-17T18:17:01.897Z,99.90
2018-09-17T18:19:30.609Z,99.90
2018-09-17T18:21:59.195Z,99.90
2018-09-17T18:24:27.977Z,99.90
2018-09-17T18:26:56.692Z,99.90
2018-09-17T18:29:25.342Z,99.90
2018-09-17T18:31:54.088Z,99.90
2018-09-17T18:34:22.856Z,99.90
2018-09-17T18:36:51.623Z,99.90
2018-09-17T18:39:20.454Z,99.90
2018-09-17T18:41:49.170Z,99.90
2018-09-17T18:44:18.276Z,99.90
2018-09-17T18:46:47.971Z,99.90
2018-09-17T18:49:17.202Z,99.90
2018-09-17T18:51:46.304Z,99.90
2018-09-17T18:54:15.018Z,99.90
2018-09-17T18:56:43.791Z,99.90
2018-09-17T18:59:13.015Z,99.90
2018-09-17T19:01:42.032Z,99.90
2018-09-17T19:04:10.711Z,99.90
2018-09-17T19:06:39.628Z,99.90
2018-09-17T19:09:08.883Z,99.90
2018-09-17T19:11:38.169Z,99.90
2018-09-17T19:14:12.719Z,99.90
2018-09-17T19:16:46.885Z,99.90
2018-09-17T19:19:15.893Z,99.90
2018-09-17T19:22:50.946Z,99.90
2018-09-17T19:25:19.633Z,99.90
2018-09-17T19:27:53.553Z,99.90
2018-09-17T19:30:22.266Z,99.90
2018-09-17T19:32:50.969Z,99.90
2018-09-17T19:35:20.035Z,99.90
2018-09-17T19:37:54.302Z,99.90
2018-09-17T19:40:23.125Z,99.90
2018-09-17T19:42:51.743Z,99.90
2018-09-17T19:45:25.674Z,99.90
2018-09-17T19:47:54.455Z,99.90
2018-09-17T19:50:28.378Z,99.90
2018-09-17T19:52:57.027Z,99.90
2018-09-17T19:55:25.603Z,99.90
2018-09-17T19:57:59.669Z,99.90
2018-09-17T20:00:29.284Z,99.90
2018-09-17T20:02:58.231Z,99.90
2018-09-17T20:05:32.552Z,99.90
2018-09-17T20:08:01.358Z,99.90
2018-09-17T20:10:30.034Z,99.90
2018-09-17T20:12:58.762Z,99.90
2018-09-17T20:15:27.763Z,99.90
2018-09-17T20:17:56.372Z,99.90
2018-09-17T20:20:25.628Z,99.90
2018-09-17T20:22:54.538Z,99.90
2018-09-17T20:25:23.480Z,99.90
2018-09-17T20:27:52.267Z,99.90
2018-09-17T20:30:20.823Z,99.90
2018-09-17T20:32:49.791Z,99.90
2018-09-17T20:35:18.561Z,99.90
2018-09-17T20:37:47.210Z,99.90
2018-09-17T20:40:16.021Z,99.90
2018-09-17T20:42:44.662Z,99.90
2018-09-17T20:45:13.589Z,99.90
2018-09-17T20:47:42.172Z,99.90
2018-09-17T20:50:11.462Z,99.90
2018-09-17T20:52:40.376Z,99.90
2018-09-17T20:55:09.202Z,99.90
2018-09-17T20:57:38.082Z,99.90
2018-09-17T21:00:06.881Z,99.90
2018-09-17T21:02:35.645Z,99.90
2018-09-17T21:05:04.337Z,99.90
2018-09-17T21:07:33.136Z,99.90
2018-09-17T21:10:01.945Z,99.90
2018-09-17T21:12:30.670Z,99.90
2018-09-17T21:14:59.343Z,99.90
2018-09-17T21:17:28.172Z,99.90
2018-09-17T21:19:57.031Z,99.90
2018-09-17T21:22:25.813Z,99.90
2018-09-17T21:24:55.043Z,99.90
2018-09-17T21:27:23.768Z,99.90
2018-09-17T21:29:52.639Z,99.90
2018-09-17T21:32:21.229Z,99.90
2018-09-17T21:34:50.033Z,99.90
2018-09-17T21:37:18.822Z,99.90
2018-09-17T21:39:47.899Z,99.90
2018-09-17T21:42:16.763Z,99.90
2018-09-17T21:44:45.467Z,99.90
2018-09-17T21:47:14.805Z,99.90
2018-09-17T21:49:48.322Z,99.90
2018-09-17T21:52:17.064Z,99.90
2018-09-17T21:54:45.635Z,99.90
2018-09-17T21:57:14.528Z,99.90
2018-09-17T21:59:43.722Z,99.90
2018-09-17T22:02:12.572Z,99.90
2018-09-17T22:04:41.291Z,99.90
2018-09-17T22:07:10.495Z,99.90
2018-09-17T22:09:39.017Z,99.90
2018-09-17T22:12:09.303Z,99.90
2018-09-17T22:14:38.118Z,99.90
2018-09-17T22:17:07.540Z,99.90
2018-09-17T22:19:36.207Z,99.90
2018-09-17T22:22:04.880Z,99.90
2018-09-17T22:24:33.581Z,99.90
2018-09-17T22:27:02.728Z,99.90
2018-09-17T22:29:32.053Z,99.90
2018-09-17T22:32:00.648Z,99.90
2018-09-17T22:34:29.365Z,99.90
2018-09-17T22:36:57.861Z,99.90
2018-09-17T22:39:26.404Z,99.90
2018-09-17T22:41:55.056Z,99.90
2018-09-17T22:44:23.933Z,99.90
2018-09-17T22:46:52.544Z,99.90
2018-09-17T22:49:21.366Z,99.90
2018-09-17T22:51:50.427Z,99.90
2018-09-17T22:54:19.084Z,99.90
2018-09-17T22:56:47.748Z,99.90
2018-09-17T22:59:16.266Z,99.90
2018-09-17T23:01:44.979Z,99.90
2018-09-17T23:04:13.646Z,99.90
2018-09-17T23:06:43.168Z,99.90
2018-09-17T23:09:12.121Z,99.90
2018-09-17T23:11:40.693Z,99.90
2018-09-17T23:14:09.312Z,99.90
2018-09-17T23:16:38.451Z,99.90
2018-09-17T23:19:07.165Z,99.90
2018-09-17T23:21:36.745Z,99.90
2018-09-17T23:24:05.272Z,99.90
2018-09-17T23:26:33.899Z,99.90
2018-09-17T23:29:02.578Z,99.90
2018-09-17T23:31:31.213Z,99.90
2018-09-17T23:33:59.796Z,99.90
2018-09-17T23:36:28.470Z,99.90
2018-09-17T23:38:57.064Z,99.90
2018-09-17T23:41:25.564Z,99.90
2018-09-17T23:43:54.096Z,99.90
2018-09-17T23:46:22.787Z,99.90
2018-09-17T23:48:51.253Z,99.90
2018-09-17T23:51:19.871Z,99.90
2018-09-17T23:53:48.568Z,99.90
2018-09-17T23:56:17.122Z,99.90
2018-09-17T23:58:45.888Z,99.90
